Hlavní strana
METAR-TAF:

METAR-TAF

Letiště :

Mezinárodní letiště Šardžá

Šardžá, Spojené arabské emiráty

zeměpisná šířka: 25-20N, zeměpisná délka: 055-31E, výška: 35 m

Aktuální stav počasí

Zpráva byla vytvořena před 1 hodinou a 4 minutami, v 03:00 UTC
Východní vítr 3 kt
Teplota 25°C
Vlhkost vzduchu 79%
Tlak 1015 hPa
Viditelnost 10 km a více
Žádná oblačnost pod 1500 m, nevyskytují se cumulonimby.

METAR: OMSJ 140300Z 10003KT CAVOK 25/21 Q1015 NOSIG

Čas: 08:04 (04:04 UTC)

Předpověď počasí

Zpráva byla vytvořena před 5 hodinami a 8 minutami, v 22:56 UTC
Předpověď platná od 14 v 00 UTC do 15 v 06 UTC
Jihovýchodní vítr 8 kt
Viditelnost: 8000 m
Změna
od 14 v 09 UTC do 14 v 11 UTC
Severoseverozápadní vítr 13 kt
Změna
od 14 v 16 UTC do 14 v 18 UTC
Východojihovýchodní vítr 5 kt
Změna
od 15 v 02 UTC do 15 v 04 UTC
Jižní vítr 10 kt

TAF: OMSJ 132256Z 1400/1506 14008KT 8000 NSC BECMG 1409/1411 33013KT BECMG 1416/1418 11005KT BECMG 1502/1504 18010KT

Stav a předpovědi počasí z více než 4 000 letišť (zprávy METAR a TAF).

Červené a žluté tečky na mapě představují dostupné meteorologické stanice.

Když kurzor umístíte na tečku, zobrazí se název stanice.

Pak kliknutím zobrazíte stav a předpověď počasí.

Chcete-li změnit mapu, kliknutím na zelené tlačítko se znaménkem +mapu přiblížíte, kliknutím na zelené tlačítko se znaménkem – mapu oddálíte a kliknutím na zelené šipky přejdete na sousední mapy.


METAR-TAF: